Sveva — IBEU — position and weather

sailwx.info

Track history (hours):
 
Tides and Currents Weather Stations Pressure Air Temp Water Temp Dewpoint Dewpoint Depression Visibility Wind Speed Wind Dir Waves Ship Positions

Sveva

Last reported at 2017-Mar-12 11:26 UTC. Time now 2017-Mar-26 07:25 UTC.
Position S 00°10' W 047°24'.
Warning: this ship's position is 13 days out of date.

Length 136 m; draft 7.9 m.

Type: Tanker. MMSI: 247359000.

Date/timePositionNaut miles runAvg speedWind from/ knotsBaromVisibWave heightAir tempDewpointWater temp
2017-Mar-12 11:26S 00°10' W 047°24'8 9.4
2017-Mar-12 10:33S 00°11' W 047°32'9 8.9
2017-Mar-12 09:33S 00°12' W 047°41'9 8.9
2017-Mar-12 08:33S 00°13' W 047°49'1010.1
2017-Mar-12 07:33S 00°18' W 047°58'1212.0
2017-Mar-12 06:34S 00°23' W 048°09'1514.2
2017-Mar-12 05:32S 00°33' W 048°20'1513.6
2017-Mar-12 04:28S 00°45' W 048°27'1010.8
2017-Mar-12 03:34S 00°55' W 048°27'9 9.3
2017-Mar-12 02:33S 01°04' W 048°30'8 8.0
2017-Mar-12 01:33S 01°12' W 048°29'8 8.3
2017-Mar-12 00:33S 01°20' W 048°29'0 0.2
2017-Mar-11 23:31S 01°20' W 048°29'0 0.0
2017-Mar-11 22:31S 01°20' W 048°29'0 0.0
2017-Mar-11 21:31S 01°20' W 048°29'0 0.0
2017-Mar-11 20:31S 01°20' W 048°29'0 0.0
2017-Mar-11 19:31S 01°20' W 048°29'0 0.0
2017-Mar-11 18:31S 01°20' W 048°29'0 0.0
2017-Mar-11 17:31S 01°20' W 048°29'0 0.0
2017-Mar-11 16:31S 01°20' W 048°29'0 0.0
2017-Mar-11 15:31S 01°20' W 048°29'0 0.0
2017-Mar-11 14:31S 01°20' W 048°29'0 0.0
2017-Mar-11 13:31S 01°20' W 048°29'0 0.0
2017-Mar-11 12:31S 01°20' W 048°29'0 0.0
2017-Mar-11 11:31S 01°20' W 048°29'0 0.0
2017-Mar-11 10:31S 01°20' W 048°29'0 0.0
2017-Mar-11 09:31S 01°20' W 048°29'0 0.0
2017-Mar-11 08:31S 01°20' W 048°29'0 0.0
2017-Mar-11 07:31S 01°20' W 048°29'0 0.0
2017-Mar-11 06:31S 01°20' W 048°29'0 0.0
2017-Mar-11 05:31S 01°20' W 048°29'0 0.0
2017-Mar-11 04:31S 01°20' W 048°29'0 0.0
2017-Mar-11 03:31S 01°20' W 048°29'0 0.0
2017-Mar-11 02:31S 01°20' W 048°29'0 0.0
2017-Mar-11 01:31S 01°20' W 048°29'0 0.0
2017-Mar-11 00:31S 01°20' W 048°29'0 0.0
2017-Mar-10 23:31S 01°20' W 048°29'0 0.0
2017-Mar-10 22:31S 01°20' W 048°29'0 0.0
2017-Mar-10 21:31S 01°20' W 048°29'0 0.0
2017-Mar-10 20:31S 01°20' W 048°29'0 0.0
2017-Mar-10 19:31S 01°20' W 048°29'0 0.0
2017-Mar-10 18:31S 01°20' W 048°29'0 0.0
2017-Mar-10 17:31S 01°20' W 048°29'0 0.0
2017-Mar-10 16:32S 01°20' W 048°29'0 0.0
2017-Mar-10 15:31S 01°20' W 048°29'0 0.0
2017-Mar-10 14:28S 01°20' W 048°29'0 0.0
2017-Mar-10 13:31S 01°20' W 048°29'0 0.0
2017-Mar-10 12:31S 01°20' W 048°29'0 0.0
2017-Mar-10 11:31S 01°20' W 048°29'0 0.4
2017-Mar-10 10:34S 01°20' W 048°29'1312.2
2017-Mar-10 09:32S 01°08' W 048°30'2 0.5
2017-Mar-10 06:23S 01°06' W 048°29'0 0.0
2017-Mar-10 05:18S 01°06' W 048°29'0 0.1
2017-Mar-10 04:24S 01°06' W 048°29'0 0.1
2017-Mar-10 02:18S 01°06' W 048°29'0 0.0
2017-Mar-10 01:33S 01°06' W 048°29'0 0.0
2017-Mar-10 00:30S 01°06' W 048°29'0 0.0
2017-Mar-09 23:32S 01°06' W 048°29'0 0.0
2017-Mar-09 22:33S 01°06' W 048°29'0 0.0
2017-Mar-09 21:32S 01°06' W 048°29'  
Track history (hours):
 
Tides and Currents Weather Stations Pressure Air Temp Water Temp Dewpoint Dewpoint Depression Visibility Wind Speed Wind Dir Waves Ship Positions

Sveva

Last reported at 2017-Mar-12 11:26 UTC. Time now 2017-Mar-26 07:25 UTC.
Position S 00°10' W 047°24'.
Warning: this ship's position is 13 days out of date.

Length 136 m; draft 7.9 m.

Type: Tanker. MMSI: 247359000.

Date/timePositionNaut miles runAvg speedWind from/ knotsBaromVisibWave heightAir tempDewpointWater temp
2017-Mar-12 11:26S 00°10' W 047°24'8 9.4
2017-Mar-12 10:33S 00°11' W 047°32'9 8.9
2017-Mar-12 09:33S 00°12' W 047°41'9 8.9
2017-Mar-12 08:33S 00°13' W 047°49'1010.1
2017-Mar-12 07:33S 00°18' W 047°58'1212.0
2017-Mar-12 06:34S 00°23' W 048°09'1514.2
2017-Mar-12 05:32S 00°33' W 048°20'1513.6
2017-Mar-12 04:28S 00°45' W 048°27'1010.8
2017-Mar-12 03:34S 00°55' W 048°27'9 9.3
2017-Mar-12 02:33S 01°04' W 048°30'8 8.0
2017-Mar-12 01:33S 01°12' W 048°29'8 8.3
2017-Mar-12 00:33S 01°20' W 048°29'0 0.2
2017-Mar-11 23:31S 01°20' W 048°29'0 0.0
2017-Mar-11 22:31S 01°20' W 048°29'0 0.0
2017-Mar-11 21:31S 01°20' W 048°29'0 0.0
2017-Mar-11 20:31S 01°20' W 048°29'0 0.0
2017-Mar-11 19:31S 01°20' W 048°29'0 0.0
2017-Mar-11 18:31S 01°20' W 048°29'0 0.0
2017-Mar-11 17:31S 01°20' W 048°29'0 0.0
2017-Mar-11 16:31S 01°20' W 048°29'0 0.0
2017-Mar-11 15:31S 01°20' W 048°29'0 0.0
2017-Mar-11 14:31S 01°20' W 048°29'0 0.0
2017-Mar-11 13:31S 01°20' W 048°29'0 0.0
2017-Mar-11 12:31S 01°20' W 048°29'0 0.0
2017-Mar-11 11:31S 01°20' W 048°29'0 0.0
2017-Mar-11 10:31S 01°20' W 048°29'0 0.0
2017-Mar-11 09:31S 01°20' W 048°29'0 0.0
2017-Mar-11 08:31S 01°20' W 048°29'0 0.0
2017-Mar-11 07:31S 01°20' W 048°29'0 0.0
2017-Mar-11 06:31S 01°20' W 048°29'0 0.0
2017-Mar-11 05:31S 01°20' W 048°29'0 0.0
2017-Mar-11 04:31S 01°20' W 048°29'0 0.0
2017-Mar-11 03:31S 01°20' W 048°29'0 0.0
2017-Mar-11 02:31S 01°20' W 048°29'0 0.0
2017-Mar-11 01:31S 01°20' W 048°29'0 0.0
2017-Mar-11 00:31S 01°20' W 048°29'0 0.0
2017-Mar-10 23:31S 01°20' W 048°29'0 0.0
2017-Mar-10 22:31S 01°20' W 048°29'0 0.0
2017-Mar-10 21:31S 01°20' W 048°29'0 0.0
2017-Mar-10 20:31S 01°20' W 048°29'0 0.0
2017-Mar-10 19:31S 01°20' W 048°29'0 0.0
2017-Mar-10 18:31S 01°20' W 048°29'0 0.0
2017-Mar-10 17:31S 01°20' W 048°29'0 0.0
2017-Mar-10 16:32S 01°20' W 048°29'0 0.0
2017-Mar-10 15:31S 01°20' W 048°29'0 0.0
2017-Mar-10 14:28S 01°20' W 048°29'0 0.0
2017-Mar-10 13:31S 01°20' W 048°29'0 0.0
2017-Mar-10 12:31S 01°20' W 048°29'0 0.0
2017-Mar-10 11:31S 01°20' W 048°29'0 0.4
2017-Mar-10 10:34S 01°20' W 048°29'1312.2
2017-Mar-10 09:32S 01°08' W 048°30'2 0.5
2017-Mar-10 06:23S 01°06' W 048°29'0 0.0
2017-Mar-10 05:18S 01°06' W 048°29'0 0.1
2017-Mar-10 04:24S 01°06' W 048°29'0 0.1
2017-Mar-10 02:18S 01°06' W 048°29'0 0.0
2017-Mar-10 01:33S 01°06' W 048°29'0 0.0
2017-Mar-10 00:30S 01°06' W 048°29'0 0.0
2017-Mar-09 23:32S 01°06' W 048°29'0 0.0
2017-Mar-09 22:33S 01°06' W 048°29'0 0.0
2017-Mar-09 21:32S 01°06' W 048°29'  

Dump ship's entire track history